createdAt,value
2018-01-01T00:00:24.020Z,64.90
2018-01-01T00:01:25.152Z,66.00
2018-01-01T00:02:26.245Z,66.30
2018-01-01T00:03:27.365Z,67.40
2018-01-01T00:04:28.458Z,68.90
2018-01-01T00:05:29.573Z,68.60
2018-01-01T00:06:30.702Z,69.10
2018-01-01T00:07:31.814Z,69.50
2018-01-01T00:08:32.919Z,70.40
2018-01-01T00:09:34.753Z,71.50
2018-01-01T00:10:35.877Z,71.20
2018-01-01T00:11:36.939Z,72.10
2018-01-01T00:12:38.759Z,71.00
2018-01-01T00:13:39.815Z,71.00
2018-01-01T00:14:41.614Z,71.90
2018-01-01T00:15:42.688Z,71.30
2018-01-01T00:16:43.751Z,72.10
2018-01-01T00:17:44.868Z,73.10
2018-01-01T00:18:45.935Z,71.50
2018-01-01T00:19:47.000Z,71.30
2018-01-01T00:20:48.084Z,72.00
2018-01-01T00:21:49.152Z,72.30
2018-01-01T00:22:50.251Z,71.90
2018-01-01T00:23:51.370Z,72.10
2018-01-01T00:24:52.415Z,72.10
2018-01-01T00:25:53.497Z,72.10
2018-01-01T00:26:54.564Z,71.70
2018-01-01T00:27:56.366Z,71.70
2018-01-01T00:28:57.464Z,71.70
2018-01-01T00:29:58.507Z,71.40
2018-01-01T00:31:00.323Z,71.80
2018-01-01T00:32:01.415Z,71.00
2018-01-01T00:33:02.504Z,71.10
2018-01-01T00:34:03.556Z,70.70
2018-01-01T00:35:04.616Z,71.00
2018-01-01T00:36:05.663Z,70.40
2018-01-01T00:37:07.495Z,71.20
2018-01-01T00:38:08.555Z,70.50
2018-01-01T00:39:10.363Z,70.50
2018-01-01T00:40:11.410Z,70.50
2018-01-01T00:41:12.484Z,70.30
2018-01-01T00:42:13.547Z,70.10
2018-01-01T00:43:14.615Z,70.20
2018-01-01T00:44:15.671Z,70.30
2018-01-01T00:45:17.475Z,70.20
2018-01-01T00:46:18.536Z,70.20
2018-01-01T00:47:19.608Z,70.20
2018-01-01T00:48:20.687Z,70.50
2018-01-01T00:49:21.748Z,69.20
2018-01-01T00:50:23.547Z,69.50
2018-01-01T00:51:24.644Z,69.40
2018-01-01T00:52:25.730Z,68.70
2018-01-01T00:53:26.827Z,68.50
2018-01-01T00:54:27.879Z,68.40
2018-01-01T00:55:28.935Z,67.90
2018-01-01T00:56:30.008Z,68.20
2018-01-01T00:57:31.076Z,68.40
2018-01-01T00:58:32.160Z,68.20
2018-01-01T00:59:33.251Z,68.20
2018-01-01T01:00:34.328Z,68.20
2018-01-01T01:01:35.407Z,67.70
2018-01-01T01:02:36.493Z,67.40
2018-01-01T01:03:37.568Z,67.00
2018-01-01T01:04:38.638Z,66.60
2018-01-01T01:05:40.455Z,66.90
2018-01-01T01:06:41.514Z,66.90
2018-01-01T01:07:43.324Z,65.90
2018-01-01T01:08:44.417Z,66.70
2018-01-01T01:09:45.493Z,66.00
2018-01-01T01:10:46.562Z,66.30
2018-01-01T01:11:47.644Z,65.90
2018-01-01T01:12:48.698Z,66.00
2018-01-01T01:13:49.783Z,65.90
2018-01-01T01:14:50.871Z,65.00
2018-01-01T01:15:51.947Z,65.20
2018-01-01T01:16:53.011Z,65.30
2018-01-01T01:17:54.079Z,64.60
2018-01-01T01:18:55.899Z,64.60
2018-01-01T01:19:56.956Z,64.50
2018-01-01T01:20:58.036Z,64.80
2018-01-01T01:21:59.096Z,64.60
2018-01-01T01:23:00.179Z,64.10
2018-01-01T01:24:01.260Z,63.80
2018-01-01T01:25:02.356Z,64.20
2018-01-01T01:26:03.439Z,63.30
2018-01-01T01:27:04.503Z,63.30
2018-01-01T01:28:05.576Z,63.30
2018-01-01T01:29:06.673Z,63.30
2018-01-01T01:30:07.755Z,63.30
2018-01-01T01:31:08.868Z,63.60
2018-01-01T01:32:09.960Z,63.40
2018-01-01T01:33:11.043Z,64.10
2018-01-01T01:34:12.135Z,63.30
2018-01-01T01:35:13.242Z,63.30
2018-01-01T01:36:15.064Z,63.20
2018-01-01T01:37:16.134Z,63.10
2018-01-01T01:38:18.077Z,62.80
2018-01-01T01:39:19.158Z,62.70
2018-01-01T01:40:20.219Z,62.70
2018-01-01T01:41:21.298Z,62.50
2018-01-01T01:42:22.398Z,61.70
2018-01-01T01:43:23.475Z,61.90
2018-01-01T01:44:25.325Z,61.90
2018-01-01T01:45:26.455Z,61.90
2018-01-01T01:46:27.546Z,61.50
2018-01-01T01:47:28.630Z,61.50
2018-01-01T01:48:41.869Z,61.60
2018-01-01T01:49:42.959Z,61.10
2018-01-01T01:50:44.776Z,61.10
2018-01-01T01:51:45.851Z,61.10
2018-01-01T01:52:46.923Z,61.20
2018-01-01T01:53:47.988Z,61.30
2018-01-01T01:54:49.054Z,61.60
2018-01-01T01:55:50.116Z,61.60
2018-01-01T01:56:51.164Z,61.70
2018-01-01T01:57:52.219Z,61.60
2018-01-01T01:58:56.403Z,61.70
2018-01-01T01:59:57.533Z,61.50
2018-01-01T02:00:58.628Z,61.60
2018-01-01T02:02:00.048Z,61.50
2018-01-01T02:03:01.107Z,61.40
2018-01-01T02:04:02.188Z,61.40
2018-01-01T02:05:04.004Z,61.80
2018-01-01T02:06:05.068Z,61.80
2018-01-01T02:07:06.888Z,62.00
2018-01-01T02:08:07.973Z,61.90
2018-01-01T02:09:09.041Z,61.70
2018-01-01T02:10:10.113Z,62.00
2018-01-01T02:11:11.184Z,62.00
2018-01-01T02:12:12.263Z,62.00
2018-01-01T02:13:13.440Z,62.00
2018-01-01T02:14:14.501Z,62.20
2018-01-01T02:15:15.571Z,62.20
2018-01-01T02:16:16.631Z,62.10
2018-01-01T02:17:18.483Z,62.30
2018-01-01T02:18:20.288Z,62.40
2018-01-01T02:19:21.372Z,62.40
2018-01-01T02:20:22.453Z,62.50
2018-01-01T02:21:23.559Z,62.60
2018-01-01T02:22:24.648Z,63.50
2018-01-01T02:23:25.735Z,62.80
2018-01-01T02:24:26.798Z,63.00
2018-01-01T02:25:27.895Z,63.00
2018-01-01T02:26:28.946Z,63.00
2018-01-01T02:27:30.000Z,63.10
2018-01-01T02:28:31.814Z,63.00
2018-01-01T02:29:32.911Z,63.00
2018-01-01T02:30:33.982Z,63.00
2018-01-01T02:31:35.051Z,63.00
2018-01-01T02:32:36.119Z,63.00
2018-01-01T02:33:37.196Z,63.00
2018-01-01T02:34:38.267Z,63.00
2018-01-01T02:35:39.340Z,63.00
2018-01-01T02:36:40.411Z,63.00
2018-01-01T02:37:41.476Z,63.00
2018-01-01T02:38:42.548Z,63.00
2018-01-01T02:39:43.622Z,63.00
2018-01-01T02:40:44.712Z,63.00
2018-01-01T02:41:45.786Z,63.00
2018-01-01T02:42:46.853Z,63.00
2018-01-01T02:43:47.931Z,63.00
2018-01-01T02:44:49.735Z,63.00
2018-01-01T02:45:50.815Z,63.00
2018-01-01T02:46:51.906Z,63.10
2018-01-01T02:47:52.990Z,63.10
2018-01-01T02:48:54.050Z,63.10
2018-01-01T02:49:55.111Z,63.10
2018-01-01T02:50:56.180Z,62.70
2018-01-01T02:51:57.995Z,62.90
2018-01-01T02:52:59.059Z,62.90
2018-01-01T02:54:00.145Z,62.70
2018-01-01T02:55:01.235Z,62.90
2018-01-01T02:56:02.318Z,62.30
2018-01-01T02:57:03.394Z,62.50
2018-01-01T02:58:04.525Z,62.80
2018-01-01T02:59:05.593Z,63.10
2018-01-01T03:00:06.669Z,63.10
2018-01-01T03:01:07.760Z,63.00
2018-01-01T03:02:08.841Z,63.00
2018-01-01T03:03:09.927Z,63.00
2018-01-01T03:04:11.005Z,62.90
2018-01-01T03:05:12.072Z,62.90
2018-01-01T03:06:13.131Z,63.00
2018-01-01T03:07:14.199Z,63.00
2018-01-01T03:08:15.272Z,63.30
2018-01-01T03:09:16.355Z,63.40
2018-01-01T03:10:17.411Z,63.30
2018-01-01T03:11:19.661Z,63.50
2018-01-01T03:12:21.473Z,63.20
2018-01-01T03:13:22.536Z,63.10
2018-01-01T03:14:23.624Z,63.20
2018-01-01T03:15:24.707Z,63.00
2018-01-01T03:16:25.783Z,63.00
2018-01-01T03:17:26.859Z,62.90
2018-01-01T03:18:27.923Z,63.50
2018-01-01T03:19:29.015Z,62.90
2018-01-01T03:20:30.077Z,63.50
2018-01-01T03:21:31.146Z,63.60
2018-01-01T03:22:32.232Z,63.70
2018-01-01T03:23:34.047Z,63.60
2018-01-01T03:24:35.120Z,63.50
2018-01-01T03:25:36.928Z,64.40
2018-01-01T03:26:38.044Z,63.60
2018-01-01T03:27:39.133Z,63.60
2018-01-01T03:28:40.927Z,63.70
2018-01-01T03:29:42.003Z,63.60
2018-01-01T03:30:43.068Z,64.60
2018-01-01T03:31:44.137Z,64.50
2018-01-01T03:32:45.211Z,63.70
2018-01-01T03:33:46.287Z,63.90
2018-01-01T03:34:47.339Z,63.60
2018-01-01T03:35:48.395Z,63.70
2018-01-01T03:36:50.212Z,63.60
2018-01-01T03:38:59.119Z,63.80
2018-01-01T03:40:00.192Z,63.90
2018-01-01T03:41:01.260Z,63.80
2018-01-01T03:42:02.366Z,63.90
2018-01-01T03:43:04.213Z,64.00
2018-01-01T03:44:05.304Z,64.00
2018-01-01T03:45:06.379Z,63.70
2018-01-01T03:46:07.446Z,63.70
2018-01-01T03:47:08.559Z,63.80
2018-01-01T03:48:09.643Z,63.80
2018-01-01T03:49:10.731Z,63.80
2018-01-01T03:50:11.799Z,63.90
2018-01-01T03:51:12.875Z,63.80
2018-01-01T03:52:14.694Z,63.70
2018-01-01T03:53:15.775Z,63.70
2018-01-01T03:54:16.860Z,63.70
2018-01-01T03:55:17.939Z,63.70
2018-01-01T03:56:19.044Z,63.70
2018-01-01T03:57:20.131Z,63.90
2018-01-01T03:58:21.259Z,63.60
2018-01-01T03:59:22.326Z,63.50
2018-01-01T04:00:23.427Z,64.40
2018-01-01T04:01:24.523Z,63.60
2018-01-01T04:02:26.337Z,64.00
2018-01-01T04:03:27.429Z,63.90
2018-01-01T04:04:28.513Z,63.70
2018-01-01T04:05:29.580Z,63.80
2018-01-01T04:06:30.671Z,63.40
2018-01-01T04:07:31.757Z,63.40
2018-01-01T04:08:32.835Z,63.60
2018-01-01T04:09:33.911Z,63.40
2018-01-01T04:10:34.991Z,63.30
2018-01-01T04:11:36.079Z,63.30
2018-01-01T04:12:37.155Z,63.20
2018-01-01T04:13:38.239Z,63.40
2018-01-01T04:14:39.319Z,63.30
2018-01-01T04:15:40.858Z,63.20
2018-01-01T04:16:42.645Z,63.30
2018-01-01T04:17:43.729Z,63.00
2018-01-01T04:18:44.812Z,62.60
2018-01-01T04:19:45.899Z,62.50
2018-01-01T04:20:46.968Z,62.70
2018-01-01T04:21:48.800Z,63.40
2018-01-01T04:22:49.880Z,62.70
2018-01-01T04:23:50.967Z,62.60
2018-01-01T04:24:52.051Z,62.60
2018-01-01T04:25:53.140Z,62.40
2018-01-01T04:26:54.231Z,62.50
2018-01-01T04:27:55.312Z,62.60
2018-01-01T04:28:56.384Z,62.60
2018-01-01T04:31:03.747Z,62.00
2018-01-01T04:32:05.580Z,62.20
2018-01-01T04:33:06.659Z,62.20
2018-01-01T04:34:07.735Z,61.90
2018-01-01T04:35:08.811Z,61.90
2018-01-01T04:36:09.900Z,62.00
2018-01-01T04:37:10.999Z,62.30
2018-01-01T04:38:12.081Z,62.00
2018-01-01T04:39:13.895Z,62.30
2018-01-01T04:40:14.988Z,62.20
2018-01-01T04:41:16.059Z,62.40
2018-01-01T04:42:17.163Z,62.40
2018-01-01T04:43:18.248Z,62.40
2018-01-01T04:44:19.347Z,62.30
2018-01-01T04:45:20.435Z,62.40
2018-01-01T04:46:21.507Z,62.40
2018-01-01T04:47:22.595Z,62.00
2018-01-01T04:48:24.411Z,62.00
2018-01-01T04:49:25.504Z,62.00
2018-01-01T04:50:26.576Z,62.00
2018-01-01T04:51:27.648Z,62.30
2018-01-01T04:52:28.738Z,62.00
2018-01-01T04:53:29.811Z,61.90
2018-01-01T04:54:30.899Z,61.90
2018-01-01T04:55:31.967Z,61.40
2018-01-01T04:56:33.786Z,61.20
2018-01-01T04:57:34.914Z,61.20
2018-01-01T04:58:35.983Z,61.20
2018-01-01T04:59:37.799Z,61.60
2018-01-01T05:00:38.943Z,61.60
2018-01-01T05:02:00.873Z,61.70
2018-01-01T05:03:01.979Z,61.50
2018-01-01T05:04:03.071Z,61.30
2018-01-01T05:05:04.143Z,61.50
2018-01-01T05:06:05.237Z,61.30
2018-01-01T05:07:06.307Z,61.00
2018-01-01T05:08:07.386Z,61.10
2018-01-01T05:09:09.204Z,61.20
2018-01-01T05:10:10.271Z,61.20
2018-01-01T05:11:12.086Z,62.10
2018-01-01T05:12:13.169Z,61.30
2018-01-01T05:13:14.264Z,61.30
2018-01-01T05:14:16.087Z,62.10
2018-01-01T05:15:17.208Z,61.30
2018-01-01T05:16:18.619Z,61.10
2018-01-01T05:17:19.691Z,61.30
2018-01-01T05:18:20.776Z,61.40
2018-01-01T05:19:21.856Z,61.30
2018-01-01T05:20:22.927Z,61.30
2018-01-01T05:21:24.739Z,61.20
2018-01-01T05:22:25.819Z,61.20
2018-01-01T05:23:26.915Z,61.40
2018-01-01T05:24:27.988Z,61.40
2018-01-01T05:25:29.083Z,61.40
2018-01-01T05:26:30.159Z,60.70
2018-01-01T05:27:31.248Z,61.00
2018-01-01T05:28:32.320Z,61.10
2018-01-01T05:29:33.391Z,61.40
2018-01-01T05:30:34.456Z,61.10
2018-01-01T05:31:36.280Z,62.20
2018-01-01T05:32:37.355Z,61.30
2018-01-01T05:33:39.175Z,61.30
2018-01-01T05:34:40.238Z,61.30
2018-01-01T05:35:42.056Z,61.30
2018-01-01T05:36:43.895Z,61.60
2018-01-01T05:37:45.013Z,61.60
2018-01-01T05:38:46.115Z,61.30
2018-01-01T05:39:47.186Z,61.60
2018-01-01T05:40:48.275Z,61.60
2018-01-01T05:41:49.360Z,61.60
2018-01-01T05:42:50.455Z,61.80
2018-01-01T05:43:51.548Z,61.80
2018-01-01T05:44:52.639Z,61.70
2018-01-01T05:45:53.728Z,62.00
2018-01-01T05:46:54.807Z,61.90
2018-01-01T05:47:55.886Z,62.20
2018-01-01T05:48:57.691Z,62.10
2018-01-01T05:49:58.793Z,62.00
2018-01-01T05:50:59.875Z,62.00
2018-01-01T05:52:00.952Z,62.20
2018-01-01T05:53:02.075Z,62.30
2018-01-01T05:54:03.155Z,62.30
2018-01-01T05:55:04.232Z,62.30
2018-01-01T05:56:05.319Z,62.70
2018-01-01T05:57:06.400Z,62.90
2018-01-01T05:58:07.470Z,63.30
2018-01-01T05:59:08.571Z,63.70
2018-01-01T06:00:09.651Z,63.70
2018-01-01T06:01:10.735Z,64.10
2018-01-01T06:02:11.824Z,64.10
2018-01-01T06:03:12.904Z,64.30
2018-01-01T06:04:13.987Z,64.80
2018-01-01T06:05:15.098Z,64.60
2018-01-01T06:06:16.175Z,64.60
2018-01-01T06:07:17.263Z,64.80
2018-01-01T06:08:18.337Z,64.80
2018-01-01T06:09:19.435Z,65.10
2018-01-01T06:10:20.507Z,65.30
2018-01-01T06:11:22.337Z,65.40
2018-01-01T06:12:23.406Z,66.20
2018-01-01T06:13:24.499Z,65.40
2018-01-01T06:14:25.611Z,65.70
2018-01-01T06:15:26.700Z,66.00
2018-01-01T06:16:27.780Z,66.20
2018-01-01T06:17:28.852Z,67.50
2018-01-01T06:18:30.696Z,67.80
2018-01-01T06:19:31.817Z,68.30
2018-01-01T06:20:32.899Z,67.50
2018-01-01T06:21:33.981Z,67.50
2018-01-01T06:22:35.053Z,66.50
2018-01-01T06:23:36.127Z,66.50
2018-01-01T06:24:37.203Z,67.30
2018-01-01T06:25:39.011Z,68.20
2018-01-01T06:26:40.084Z,68.20
2018-01-01T06:27:41.163Z,68.30
2018-01-01T06:28:42.239Z,68.50
2018-01-01T06:29:43.318Z,68.70
2018-01-01T06:30:44.399Z,68.20
2018-01-01T06:31:46.223Z,68.70
2018-01-01T06:32:47.298Z,68.00
2018-01-01T06:33:49.120Z,68.30
2018-01-01T06:34:50.215Z,68.30
2018-01-01T06:35:51.283Z,67.90
2018-01-01T06:36:52.367Z,67.80
2018-01-01T06:37:53.443Z,67.60
2018-01-01T06:38:54.792Z,67.70
2018-01-01T06:39:55.874Z,67.60
2018-01-01T06:40:56.934Z,67.60
2018-01-01T06:41:58.025Z,67.50
2018-01-01T06:42:59.099Z,67.80
2018-01-01T06:44:00.183Z,67.70
2018-01-01T06:45:01.266Z,67.70
2018-01-01T06:46:02.340Z,67.90
2018-01-01T06:47:04.159Z,68.30
2018-01-01T06:48:05.240Z,68.30
2018-01-01T06:49:06.332Z,68.40
2018-01-01T06:50:08.161Z,68.70
2018-01-01T06:51:09.244Z,68.70
2018-01-01T06:52:10.324Z,69.00
2018-01-01T06:53:11.399Z,68.80
2018-01-01T06:54:12.468Z,69.40
2018-01-01T06:55:13.565Z,69.40
2018-01-01T06:56:14.648Z,69.40
2018-01-01T06:57:15.723Z,69.10
2018-01-01T06:58:17.553Z,69.20
2018-01-01T06:59:18.638Z,69.20
2018-01-01T07:00:19.735Z,69.10
2018-01-01T07:01:20.836Z,69.40
2018-01-01T07:02:21.922Z,69.10
2018-01-01T07:03:23.003Z,69.30
2018-01-01T07:04:24.065Z,69.00
2018-01-01T07:05:25.163Z,69.10
2018-01-01T07:06:26.251Z,69.00
2018-01-01T07:07:27.323Z,68.60
2018-01-01T07:08:28.414Z,68.80
2018-01-01T07:09:29.480Z,68.90
2018-01-01T07:10:30.563Z,69.00
2018-01-01T07:11:31.640Z,68.80
2018-01-01T07:12:32.779Z,68.80
2018-01-01T07:13:33.847Z,68.80
2018-01-01T07:14:35.668Z,68.70
2018-01-01T07:15:36.759Z,68.60
2018-01-01T07:16:37.839Z,68.70
2018-01-01T07:17:38.903Z,68.70
2018-01-01T07:18:40.720Z,68.70
2018-01-01T07:19:41.803Z,68.70
2018-01-01T07:20:42.887Z,68.70
2018-01-01T07:21:43.984Z,68.60
2018-01-01T07:22:45.048Z,68.70
2018-01-01T07:23:46.125Z,68.60
2018-01-01T07:24:47.200Z,68.50
2018-01-01T07:25:48.296Z,68.50
2018-01-01T07:26:49.368Z,68.30
2018-01-01T07:27:50.435Z,68.30
2018-01-01T07:28:51.516Z,68.10
2018-01-01T07:29:52.579Z,67.20
2018-01-01T07:30:53.683Z,67.00
2018-01-01T07:31:54.756Z,66.60
2018-01-01T07:32:55.823Z,66.30
2018-01-01T07:33:56.885Z,66.60
2018-01-01T07:34:57.959Z,66.50
2018-01-01T07:35:59.787Z,66.30
2018-01-01T07:37:00.860Z,66.20
2018-01-01T07:38:01.932Z,66.40
2018-01-01T07:39:03.063Z,66.10
2018-01-01T07:40:04.129Z,65.90
2018-01-01T07:41:05.221Z,65.90
2018-01-01T07:42:06.323Z,65.90
2018-01-01T07:43:07.392Z,66.00
2018-01-01T07:44:08.471Z,65.80
2018-01-01T07:45:10.286Z,65.70
2018-01-01T07:46:11.363Z,65.70
2018-01-01T07:47:13.177Z,65.30
2018-01-01T07:48:14.260Z,65.20
2018-01-01T07:49:15.332Z,65.30
2018-01-01T07:50:16.439Z,65.20
2018-01-01T07:51:17.531Z,65.10
2018-01-01T07:52:18.611Z,65.20
2018-01-01T07:53:19.683Z,64.50
2018-01-01T07:54:20.771Z,64.50
2018-01-01T07:55:21.834Z,64.20
2018-01-01T07:56:22.928Z,64.50
2018-01-01T07:57:24.020Z,64.50
2018-01-01T07:58:25.847Z,64.50
2018-01-01T07:59:26.925Z,64.30
2018-01-01T08:00:28.040Z,64.10
2018-01-01T08:01:29.883Z,63.60
2018-01-01T08:02:31.720Z,63.80
2018-01-01T08:03:32.807Z,63.70
2018-01-01T08:04:33.893Z,63.80
2018-01-01T08:05:34.963Z,63.90
2018-01-01T08:06:36.073Z,63.90
2018-01-01T08:07:37.148Z,64.00
2018-01-01T08:08:38.236Z,64.00
2018-01-01T08:09:40.051Z,63.70
2018-01-01T08:10:41.114Z,63.70
2018-01-01T08:11:42.212Z,63.70
2018-01-01T08:12:43.323Z,64.00
2018-01-01T08:13:44.415Z,64.00
2018-01-01T08:14:46.239Z,64.10
2018-01-01T08:15:47.316Z,64.10
2018-01-01T08:16:48.395Z,64.10
2018-01-01T08:17:49.480Z,64.10
2018-01-01T08:18:50.552Z,64.20
2018-01-01T08:19:51.639Z,64.10
2018-01-01T08:20:52.732Z,63.90
2018-01-01T08:21:53.823Z,63.80
2018-01-01T08:22:54.890Z,63.80
2018-01-01T08:23:55.967Z,63.70
2018-01-01T08:24:57.051Z,63.90
2018-01-01T08:25:58.133Z,63.70
2018-01-01T08:26:59.207Z,64.40
2018-01-01T08:28:00.276Z,63.60
2018-01-01T08:29:02.139Z,64.50
2018-01-01T08:30:03.962Z,63.90
2018-01-01T08:31:05.068Z,63.90
2018-01-01T08:32:06.139Z,63.90
2018-01-01T08:33:07.210Z,63.90
2018-01-01T08:34:08.279Z,63.90
2018-01-01T08:35:09.347Z,63.90
2018-01-01T08:36:10.423Z,63.70
2018-01-01T08:37:11.513Z,63.90
2018-01-01T08:38:12.567Z,63.70
2018-01-01T08:39:13.640Z,63.70
2018-01-01T08:41:16.248Z,63.30
2018-01-01T08:42:18.059Z,63.60
2018-01-01T08:43:19.876Z,63.60
2018-01-01T08:44:21.736Z,63.70
2018-01-01T08:45:22.928Z,63.40
2018-01-01T08:46:24.792Z,63.20
2018-01-01T08:47:25.939Z,63.20
2018-01-01T08:48:27.673Z,63.40
2018-01-01T08:49:29.432Z,62.40
2018-01-01T08:50:31.433Z,62.90
2018-01-01T08:51:32.544Z,62.90
2018-01-01T08:52:33.629Z,63.00
2018-01-01T08:53:35.439Z,62.90
2018-01-01T08:54:36.519Z,62.90
2018-01-01T08:55:38.321Z,62.60
2018-01-01T08:56:39.393Z,62.50
2018-01-01T08:57:41.203Z,62.60
2018-01-01T08:58:42.261Z,62.60
2018-01-01T08:59:43.315Z,62.60
2018-01-01T09:00:44.400Z,62.70
2018-01-01T09:01:45.480Z,62.50
2018-01-01T09:02:46.603Z,62.80
2018-01-01T09:03:47.665Z,62.50
2018-01-01T09:04:48.752Z,61.60
2018-01-01T09:05:49.807Z,61.80
2018-01-01T09:06:50.888Z,62.00
2018-01-01T09:07:51.969Z,61.90
2018-01-01T09:08:53.043Z,62.10
2018-01-01T09:09:54.107Z,61.90
2018-01-01T09:10:55.165Z,60.80
2018-01-01T09:11:57.037Z,60.90
2018-01-01T09:12:58.132Z,60.80
2018-01-01T09:13:59.944Z,60.60
2018-01-01T09:15:01.021Z,60.50
2018-01-01T09:16:02.128Z,60.60
2018-01-01T09:17:03.207Z,60.80
2018-01-01T09:18:04.348Z,60.90
2018-01-01T09:19:05.422Z,61.70
2018-01-01T09:20:06.499Z,60.90
2018-01-01T09:21:07.571Z,61.10
2018-01-01T09:22:08.640Z,61.10
2018-01-01T09:23:09.728Z,60.50
2018-01-01T09:24:10.795Z,60.70
2018-01-01T09:25:11.879Z,60.90
2018-01-01T09:26:12.935Z,60.80
2018-01-01T09:27:14.014Z,61.20
2018-01-01T09:28:17.515Z,61.50
2018-01-01T09:29:18.740Z,61.30
2018-01-01T09:30:19.811Z,60.90
2018-01-01T09:31:20.875Z,61.00
2018-01-01T09:32:36.280Z,61.80
2018-01-01T09:33:37.371Z,62.00
2018-01-01T09:34:38.447Z,62.20
2018-01-01T09:35:39.516Z,62.50
2018-01-01T09:36:40.619Z,62.70
2018-01-01T09:37:41.687Z,62.70
2018-01-01T09:38:42.750Z,62.70
2018-01-01T09:39:45.071Z,62.70
2018-01-01T09:40:46.175Z,62.70
2018-01-01T09:41:47.243Z,62.70
2018-01-01T09:42:49.613Z,62.70
2018-01-01T09:43:51.708Z,62.80
2018-01-01T09:44:53.590Z,62.80
2018-01-01T09:45:55.629Z,61.80
2018-01-01T09:46:58.490Z,62.00
2018-01-01T09:48:01.274Z,61.50
2018-01-01T09:49:03.404Z,61.20
2018-01-01T09:50:04.727Z,61.30
2018-01-01T09:51:05.803Z,61.20
2018-01-01T09:52:06.889Z,61.30
2018-01-01T09:53:07.964Z,61.50
2018-01-01T09:54:09.052Z,61.30
2018-01-01T09:55:10.110Z,61.20
2018-01-01T09:56:11.907Z,61.40
2018-01-01T09:57:12.977Z,61.30
2018-01-01T09:58:14.799Z,61.40
2018-01-01T09:59:15.860Z,61.30
2018-01-01T10:00:16.925Z,61.30
2018-01-01T10:01:18.007Z,60.90
2018-01-01T10:02:19.088Z,60.50
2018-01-01T10:03:20.163Z,60.90
2018-01-01T10:04:21.223Z,60.60
2018-01-01T10:05:22.305Z,60.40
2018-01-01T10:06:24.107Z,60.50
2018-01-01T10:07:25.915Z,60.20
2018-01-01T10:08:26.995Z,60.20
2018-01-01T10:09:28.792Z,61.20
2018-01-01T10:10:29.865Z,60.30
2018-01-01T10:11:31.667Z,61.10
2018-01-01T10:12:32.736Z,60.30
2018-01-01T10:13:33.826Z,60.20
2018-01-01T10:14:35.640Z,59.00
2018-01-01T10:15:37.459Z,59.40
2018-01-01T10:16:38.524Z,59.30
2018-01-01T10:17:40.344Z,59.40
2018-01-01T10:18:41.446Z,59.30
2018-01-01T10:20:50.311Z,58.70
2018-01-01T10:21:51.378Z,58.00
2018-01-01T10:22:52.435Z,58.20
2018-01-01T10:23:53.515Z,57.90
2018-01-01T10:24:55.323Z,56.00
2018-01-01T10:25:56.396Z,55.90
2018-01-01T10:26:58.199Z,56.10
2018-01-01T10:27:59.339Z,55.40
2018-01-01T10:29:00.794Z,55.20
2018-01-01T10:30:01.868Z,53.90
2018-01-01T10:31:03.676Z,54.20
2018-01-01T10:32:04.734Z,54.20
2018-01-01T10:33:06.551Z,54.80
2018-01-01T10:34:07.656Z,54.70
2018-01-01T10:35:09.005Z,54.70
2018-01-01T10:36:10.084Z,54.80
2018-01-01T10:37:11.160Z,54.80
2018-01-01T10:38:12.227Z,55.00
2018-01-01T10:39:13.290Z,54.70
2018-01-01T10:40:16.183Z,54.70
2018-01-01T10:41:18.211Z,55.00
2018-01-01T10:42:19.354Z,54.90
2018-01-01T10:43:21.260Z,54.90
2018-01-01T10:44:22.417Z,55.00
2018-01-01T10:45:24.259Z,55.10
2018-01-01T10:46:25.344Z,55.10
2018-01-01T10:47:26.432Z,54.20
2018-01-01T10:48:27.499Z,53.80
2018-01-01T10:49:28.596Z,53.70
2018-01-01T10:50:29.676Z,54.20
2018-01-01T10:51:30.737Z,54.40
2018-01-01T10:52:31.829Z,54.40
2018-01-01T10:53:32.923Z,54.50
2018-01-01T10:54:34.005Z,54.70
2018-01-01T10:55:35.076Z,54.60
2018-01-01T10:56:36.135Z,54.50
2018-01-01T10:57:37.963Z,54.90
2018-01-01T10:58:39.051Z,54.90
2018-01-01T10:59:40.136Z,55.00
2018-01-01T11:00:41.752Z,55.20
2018-01-01T11:01:42.859Z,55.40
2018-01-01T11:02:43.945Z,55.80
2018-01-01T11:03:45.775Z,56.00
2018-01-01T11:04:46.855Z,56.00
2018-01-01T11:05:48.673Z,56.00
2018-01-01T11:06:49.773Z,56.00
2018-01-01T11:07:50.851Z,56.00
2018-01-01T11:08:52.680Z,56.10
2018-01-01T11:09:53.776Z,56.20
2018-01-01T11:10:54.881Z,56.20
2018-01-01T11:11:56.799Z,56.20
2018-01-01T11:12:57.867Z,56.10
2018-01-01T11:13:58.939Z,56.10
2018-01-01T11:15:00.046Z,55.80
2018-01-01T11:16:01.121Z,56.10
2018-01-01T11:17:02.332Z,56.30
2018-01-01T11:18:03.391Z,55.60
2018-01-01T11:19:04.459Z,55.70
2018-01-01T11:20:05.562Z,55.80
2018-01-01T11:21:06.652Z,56.10
2018-01-01T11:22:07.727Z,56.10
2018-01-01T11:23:08.799Z,56.00
2018-01-01T11:24:09.874Z,55.70
2018-01-01T11:25:10.980Z,55.80
2018-01-01T11:26:12.051Z,55.90
2018-01-01T11:27:13.147Z,55.90
2018-01-01T11:28:14.239Z,55.70
2018-01-01T11:29:15.320Z,55.70
2018-01-01T11:30:16.392Z,55.10
2018-01-01T11:31:17.468Z,55.00
2018-01-01T11:32:18.568Z,54.80
2018-01-01T11:33:19.655Z,54.50
2018-01-01T11:34:20.720Z,54.00
2018-01-01T11:35:21.793Z,53.70
2018-01-01T11:36:22.871Z,53.70
2018-01-01T11:37:24.004Z,53.70
2018-01-01T11:38:25.147Z,53.70
2018-01-01T11:39:26.452Z,53.80
2018-01-01T11:40:27.608Z,53.50
2018-01-01T11:41:28.853Z,53.80
2018-01-01T11:42:30.143Z,53.80
2018-01-01T11:43:31.408Z,53.90
2018-01-01T11:44:32.652Z,53.80
2018-01-01T11:45:33.893Z,53.50
2018-01-01T11:46:35.140Z,53.50
2018-01-01T11:47:37.010Z,53.00
2018-01-01T11:48:38.860Z,53.00
2018-01-01T11:49:40.702Z,52.90
2018-01-01T11:50:42.580Z,53.60
2018-01-01T11:51:43.718Z,53.00
2018-01-01T11:52:44.833Z,53.20
2018-01-01T11:53:46.660Z,53.20
2018-01-01T11:54:47.760Z,53.20
2018-01-01T11:55:48.901Z,53.40
2018-01-01T11:56:50.036Z,53.00
2018-01-01T11:57:51.224Z,53.40
2018-01-01T11:58:52.328Z,53.40
2018-01-01T11:59:53.497Z,53.80
2018-01-01T12:00:57.887Z,53.50
2018-01-01T12:01:59.035Z,53.60
2018-01-01T12:03:00.111Z,53.70
2018-01-01T12:04:03.323Z,53.40
2018-01-01T12:05:04.421Z,53.40
2018-01-01T12:06:05.740Z,54.40
2018-01-01T12:07:07.036Z,53.50
2018-01-01T12:08:08.860Z,53.50
2018-01-01T12:09:09.975Z,53.80
2018-01-01T12:10:11.059Z,53.90
2018-01-01T12:11:12.915Z,53.80
2018-01-01T12:12:16.305Z,53.80
2018-01-01T12:13:15.145Z,53.90
2018-01-01T12:14:16.232Z,53.90
2018-01-01T12:15:17.339Z,53.90
2018-01-01T12:16:19.174Z,53.60
2018-01-01T12:17:21.007Z,53.70
2018-01-01T12:18:22.084Z,53.70
2018-01-01T12:19:23.224Z,53.90
2018-01-01T12:20:24.365Z,53.80
2018-01-01T12:21:25.517Z,53.80
2018-01-01T12:22:26.602Z,53.80
2018-01-01T12:23:27.673Z,53.90
2018-01-01T12:24:28.798Z,53.90
2018-01-01T12:25:29.879Z,53.90
2018-01-01T12:26:37.840Z,53.90
2018-01-01T12:27:38.903Z,54.00
2018-01-01T12:28:40.029Z,53.20
2018-01-01T12:29:44.278Z,52.80
2018-01-01T12:30:45.408Z,53.00
2018-01-01T12:31:46.552Z,53.10
2018-01-01T12:32:47.689Z,53.30
2018-01-01T12:33:48.858Z,53.20
2018-01-01T12:34:49.977Z,54.00
2018-01-01T12:35:51.106Z,53.40
2018-01-01T12:36:52.233Z,53.30
2018-01-01T12:37:53.339Z,53.30
2018-01-01T12:38:55.144Z,53.30
2018-01-01T12:39:56.216Z,53.30
2018-01-01T12:40:58.097Z,53.20
2018-01-01T12:41:59.222Z,53.20
2018-01-01T12:43:00.346Z,52.60
2018-01-01T12:44:01.421Z,53.00
2018-01-01T12:45:02.551Z,52.50
2018-01-01T12:46:04.617Z,52.80
2018-01-01T12:47:09.009Z,53.60
2018-01-01T12:48:10.158Z,52.60
2018-01-01T12:49:11.286Z,52.20
2018-01-01T12:50:12.397Z,52.00
2018-01-01T12:51:13.567Z,52.10
2018-01-01T12:52:16.253Z,52.40
2018-01-01T12:53:18.526Z,51.10
2018-01-01T12:54:19.661Z,51.10
2018-01-01T12:55:20.743Z,51.70
2018-01-01T12:56:21.889Z,51.80
2018-01-01T12:57:22.971Z,51.70
2018-01-01T12:58:24.039Z,51.80
2018-01-01T12:59:25.180Z,51.80
2018-01-01T13:00:26.280Z,51.60
2018-01-01T13:01:34.528Z,51.60
2018-01-01T13:02:37.150Z,52.30
2018-01-01T13:03:38.537Z,51.40
2018-01-01T13:04:40.623Z,51.40
2018-01-01T13:05:42.512Z,51.50
2018-01-01T13:06:44.808Z,51.60
2018-01-01T13:07:46.201Z,51.30
2018-01-01T13:08:48.354Z,50.80
2018-01-01T13:09:49.833Z,50.90
2018-01-01T13:10:51.194Z,51.50
2018-01-01T13:11:53.402Z,51.00
2018-01-01T13:12:55.001Z,51.20
2018-01-01T13:13:56.561Z,51.00